sensor_id;sensor_type;location;lat;lon;timestamp;temperature;humidity
13610;DHT22;6876;50.788;4.940;2023-06-22T00:02:35;21.80;1.00
13610;DHT22;6876;50.788;4.940;2023-06-22T00:05:22;21.70;1.00
13610;DHT22;6876;50.788;4.940;2023-06-22T00:08:09;21.70;1.00
13610;DHT22;6876;50.788;4.940;2023-06-22T00:10:58;21.70;1.00
13610;DHT22;6876;50.788;4.940;2023-06-22T00:13:45;21.60;99.90
13610;DHT22;6876;50.788;4.940;2023-06-22T00:16:33;21.70;1.00
13610;DHT22;6876;50.788;4.940;2023-06-22T00:19:21;21.60;1.00
13610;DHT22;6876;50.788;4.940;2023-06-22T00:22:08;21.60;99.90
13610;DHT22;6876;50.788;4.940;2023-06-22T00:24:55;21.50;1.00
13610;DHT22;6876;50.788;4.940;2023-06-22T00:27:44;21.50;1.00
13610;DHT22;6876;50.788;4.940;2023-06-22T00:30:31;21.50;17.20
13610;DHT22;6876;50.788;4.940;2023-06-22T00:33:19;21.60;1.00
13610;DHT22;6876;50.788;4.940;2023-06-22T00:36:06;21.70;1.00
13610;DHT22;6876;50.788;4.940;2023-06-22T00:38:53;21.60;1.00
13610;DHT22;6876;50.788;4.940;2023-06-22T00:41:41;21.60;99.90
13610;DHT22;6876;50.788;4.940;2023-06-22T00:44:29;21.60;1.00
13610;DHT22;6876;50.788;4.940;2023-06-22T00:47:18;21.70;99.90
13610;DHT22;6876;50.788;4.940;2023-06-22T00:50:07;21.70;1.00
13610;DHT22;6876;50.788;4.940;2023-06-22T00:52:57;21.70;99.90
13610;DHT22;6876;50.788;4.940;2023-06-22T00:55:46;21.70;1.00
13610;DHT22;6876;50.788;4.940;2023-06-22T00:58:33;21.70;1.00
13610;DHT22;6876;50.788;4.940;2023-06-22T01:01:23;21.70;99.90
13610;DHT22;6876;50.788;4.940;2023-06-22T01:04:10;21.70;1.00
13610;DHT22;6876;50.788;4.940;2023-06-22T01:07:03;21.70;99.90
13610;DHT22;6876;50.788;4.940;2023-06-22T01:09:59;21.70;1.00
13610;DHT22;6876;50.788;4.940;2023-06-22T01:12:51;21.50;99.90
13610;DHT22;6876;50.788;4.940;2023-06-22T01:15:42;21.50;20.10
13610;DHT22;6876;50.788;4.940;2023-06-22T01:18:35;21.50;1.00
13610;DHT22;6876;50.788;4.940;2023-06-22T01:21:26;21.30;1.00
13610;DHT22;6876;50.788;4.940;2023-06-22T01:24:21;21.30;1.00
13610;DHT22;6876;50.788;4.940;2023-06-22T01:27:18;21.30;1.00
13610;DHT22;6876;50.788;4.940;2023-06-22T01:30:13;21.40;1.00
13610;DHT22;6876;50.788;4.940;2023-06-22T01:33:03;21.30;1.00
13610;DHT22;6876;50.788;4.940;2023-06-22T01:35:51;21.30;1.00
13610;DHT22;6876;50.788;4.940;2023-06-22T01:38:39;21.20;99.90
13610;DHT22;6876;50.788;4.940;2023-06-22T01:41:28;21.20;1.00
13610;DHT22;6876;50.788;4.940;2023-06-22T01:44:16;21.20;1.00
13610;DHT22;6876;50.788;4.940;2023-06-22T01:47:05;21.20;1.00
13610;DHT22;6876;50.788;4.940;2023-06-22T01:49:54;21.20;1.00
13610;DHT22;6876;50.788;4.940;2023-06-22T01:52:42;21.10;1.00
13610;DHT22;6876;50.788;4.940;2023-06-22T01:55:29;21.00;1.00
13610;DHT22;6876;50.788;4.940;2023-06-22T01:58:17;21.00;99.90
13610;DHT22;6876;50.788;4.940;2023-06-22T02:01:09;21.00;1.00
13610;DHT22;6876;50.788;4.940;2023-06-22T02:04:03;21.00;1.00
13610;DHT22;6876;50.788;4.940;2023-06-22T02:06:56;21.00;1.00
13610;DHT22;6876;50.788;4.940;2023-06-22T02:09:47;20.90;1.00
13610;DHT22;6876;50.788;4.940;2023-06-22T02:12:36;20.90;99.90
13610;DHT22;6876;50.788;4.940;2023-06-22T02:15:24;20.80;99.90
13610;DHT22;6876;50.788;4.940;2023-06-22T02:18:12;20.80;1.00
13610;DHT22;6876;50.788;4.940;2023-06-22T02:21:00;20.80;99.90
13610;DHT22;6876;50.788;4.940;2023-06-22T02:23:48;20.80;99.90
13610;DHT22;6876;50.788;4.940;2023-06-22T02:26:36;20.70;99.90
13610;DHT22;6876;50.788;4.940;2023-06-22T02:29:24;20.70;1.00
13610;DHT22;6876;50.788;4.940;2023-06-22T02:32:12;20.60;1.00
13610;DHT22;6876;50.788;4.940;2023-06-22T02:35:01;20.60;99.90
13610;DHT22;6876;50.788;4.940;2023-06-22T02:37:51;20.60;99.90
13610;DHT22;6876;50.788;4.940;2023-06-22T02:40:38;20.60;1.00
13610;DHT22;6876;50.788;4.940;2023-06-22T02:43:26;20.50;1.00
13610;DHT22;6876;50.788;4.940;2023-06-22T02:46:13;20.40;1.00
13610;DHT22;6876;50.788;4.940;2023-06-22T02:49:00;20.40;1.00
13610;DHT22;6876;50.788;4.940;2023-06-22T02:51:48;20.30;99.90
13610;DHT22;6876;50.788;4.940;2023-06-22T02:54:37;20.30;1.00
13610;DHT22;6876;50.788;4.940;2023-06-22T02:57:24;20.30;1.00
13610;DHT22;6876;50.788;4.940;2023-06-22T03:00:13;20.30;1.00
13610;DHT22;6876;50.788;4.940;2023-06-22T03:03:03;20.40;1.00
13610;DHT22;6876;50.788;4.940;2023-06-22T03:05:50;20.40;1.00
13610;DHT22;6876;50.788;4.940;2023-06-22T03:08:38;20.40;99.90
13610;DHT22;6876;50.788;4.940;2023-06-22T03:11:28;20.40;1.00
13610;DHT22;6876;50.788;4.940;2023-06-22T03:14:15;20.40;1.00
13610;DHT22;6876;50.788;4.940;2023-06-22T03:17:04;20.40;99.90
13610;DHT22;6876;50.788;4.940;2023-06-22T03:19:52;20.40;99.90
13610;DHT22;6876;50.788;4.940;2023-06-22T03:22:40;20.30;99.90
13610;DHT22;6876;50.788;4.940;2023-06-22T03:25:27;20.40;1.00
13610;DHT22;6876;50.788;4.940;2023-06-22T03:28:16;20.40;1.00
13610;DHT22;6876;50.788;4.940;2023-06-22T03:31:03;20.40;1.00
13610;DHT22;6876;50.788;4.940;2023-06-22T03:33:52;20.40;99.90
13610;DHT22;6876;50.788;4.940;2023-06-22T03:36:39;20.40;99.90
13610;DHT22;6876;50.788;4.940;2023-06-22T03:39:27;20.40;1.00
13610;DHT22;6876;50.788;4.940;2023-06-22T03:42:14;20.50;1.00
13610;DHT22;6876;50.788;4.940;2023-06-22T03:45:03;20.60;1.00
13610;DHT22;6876;50.788;4.940;2023-06-22T03:47:51;20.60;99.90
13610;DHT22;6876;50.788;4.940;2023-06-22T03:50:38;20.70;1.00
13610;DHT22;6876;50.788;4.940;2023-06-22T03:53:25;20.60;95.30
13610;DHT22;6876;50.788;4.940;2023-06-22T03:56:12;20.60;1.00
13610;DHT22;6876;50.788;4.940;2023-06-22T03:59:06;20.50;13.10
13610;DHT22;6876;50.788;4.940;2023-06-22T04:01:54;20.60;99.90
13610;DHT22;6876;50.788;4.940;2023-06-22T04:04:41;20.60;99.90
13610;DHT22;6876;50.788;4.940;2023-06-22T04:07:29;20.70;99.90
13610;DHT22;6876;50.788;4.940;2023-06-22T04:10:16;20.60;1.00
13610;DHT22;6876;50.788;4.940;2023-06-22T04:13:03;20.60;1.00
13610;DHT22;6876;50.788;4.940;2023-06-22T04:15:50;20.60;1.00
13610;DHT22;6876;50.788;4.940;2023-06-22T04:18:39;20.60;1.00
13610;DHT22;6876;50.788;4.940;2023-06-22T04:21:27;20.60;1.00
13610;DHT22;6876;50.788;4.940;2023-06-22T04:24:15;20.60;1.00
13610;DHT22;6876;50.788;4.940;2023-06-22T04:27:02;20.60;99.90
13610;DHT22;6876;50.788;4.940;2023-06-22T04:29:49;20.50;99.90
13610;DHT22;6876;50.788;4.940;2023-06-22T04:32:37;20.50;1.00
13610;DHT22;6876;50.788;4.940;2023-06-22T04:35:27;20.40;1.00
13610;DHT22;6876;50.788;4.940;2023-06-22T04:38:15;20.40;71.50
13610;DHT22;6876;50.788;4.940;2023-06-22T04:41:02;20.50;48.40
13610;DHT22;6876;50.788;4.940;2023-06-22T04:43:49;20.50;34.20
13610;DHT22;6876;50.788;4.940;2023-06-22T04:46:40;20.60;1.00
13610;DHT22;6876;50.788;4.940;2023-06-22T04:49:28;20.60;14.80
13610;DHT22;6876;50.788;4.940;2023-06-22T04:52:21;20.70;1.00
13610;DHT22;6876;50.788;4.940;2023-06-22T04:55:10;20.80;1.00
13610;DHT22;6876;50.788;4.940;2023-06-22T04:57:58;20.80;99.90
13610;DHT22;6876;50.788;4.940;2023-06-22T05:00:51;20.70;1.00
13610;DHT22;6876;50.788;4.940;2023-06-22T05:03:38;20.70;1.00
13610;DHT22;6876;50.788;4.940;2023-06-22T05:06:28;20.70;1.00
13610;DHT22;6876;50.788;4.940;2023-06-22T05:09:17;20.70;99.90
13610;DHT22;6876;50.788;4.940;2023-06-22T05:12:05;20.70;1.00
13610;DHT22;6876;50.788;4.940;2023-06-22T05:14:53;20.70;1.00
13610;DHT22;6876;50.788;4.940;2023-06-22T05:17:40;20.60;20.60
13610;DHT22;6876;50.788;4.940;2023-06-22T05:20:28;20.70;12.80
13610;DHT22;6876;50.788;4.940;2023-06-22T05:23:15;20.80;1.00
13610;DHT22;6876;50.788;4.940;2023-06-22T05:26:04;20.80;99.90
13610;DHT22;6876;50.788;4.940;2023-06-22T05:28:52;20.80;13.90
13610;DHT22;6876;50.788;4.940;2023-06-22T05:31:39;20.70;63.80
13610;DHT22;6876;50.788;4.940;2023-06-22T05:34:27;20.70;38.70
13610;DHT22;6876;50.788;4.940;2023-06-22T05:37:14;20.60;99.90
13610;DHT22;6876;50.788;4.940;2023-06-22T05:40:02;20.60;1.00
13610;DHT22;6876;50.788;4.940;2023-06-22T05:42:51;20.70;1.00
13610;DHT22;6876;50.788;4.940;2023-06-22T05:45:38;20.80;1.00
13610;DHT22;6876;50.788;4.940;2023-06-22T05:48:25;20.90;1.00
13610;DHT22;6876;50.788;4.940;2023-06-22T05:51:12;20.90;1.00
13610;DHT22;6876;50.788;4.940;2023-06-22T05:54:00;21.00;1.00
13610;DHT22;6876;50.788;4.940;2023-06-22T05:56:47;20.90;99.90
13610;DHT22;6876;50.788;4.940;2023-06-22T05:59:35;20.90;99.90
13610;DHT22;6876;50.788;4.940;2023-06-22T06:02:23;20.90;1.00
13610;DHT22;6876;50.788;4.940;2023-06-22T06:05:11;20.90;7.10
13610;DHT22;6876;50.788;4.940;2023-06-22T06:08:00;21.00;1.00
13610;DHT22;6876;50.788;4.940;2023-06-22T06:10:48;21.00;1.00
13610;DHT22;6876;50.788;4.940;2023-06-22T06:13:36;20.90;1.00
13610;DHT22;6876;50.788;4.940;2023-06-22T06:16:24;20.90;1.00
13610;DHT22;6876;50.788;4.940;2023-06-22T06:19:12;21.00;1.00
13610;DHT22;6876;50.788;4.940;2023-06-22T06:21:59;20.80;1.00
13610;DHT22;6876;50.788;4.940;2023-06-22T06:24:46;20.70;1.00
13610;DHT22;6876;50.788;4.940;2023-06-22T06:27:34;20.80;1.00
13610;DHT22;6876;50.788;4.940;2023-06-22T06:30:22;20.90;1.00
13610;DHT22;6876;50.788;4.940;2023-06-22T06:33:11;20.90;1.00
13610;DHT22;6876;50.788;4.940;2023-06-22T06:35:58;21.20;33.50
13610;DHT22;6876;50.788;4.940;2023-06-22T06:38:48;21.30;1.00
13610;DHT22;6876;50.788;4.940;2023-06-22T06:41:35;21.40;99.90
13610;DHT22;6876;50.788;4.940;2023-06-22T06:44:22;21.60;1.00
13610;DHT22;6876;50.788;4.940;2023-06-22T06:47:09;21.60;99.90
13610;DHT22;6876;50.788;4.940;2023-06-22T06:49:58;21.70;1.00
13610;DHT22;6876;50.788;4.940;2023-06-22T06:52:45;21.70;1.00
13610;DHT22;6876;50.788;4.940;2023-06-22T06:55:33;21.70;1.00
13610;DHT22;6876;50.788;4.940;2023-06-22T06:58:20;21.80;1.00
13610;DHT22;6876;50.788;4.940;2023-06-22T07:01:09;21.60;1.00
13610;DHT22;6876;50.788;4.940;2023-06-22T07:03:56;21.60;99.90
13610;DHT22;6876;50.788;4.940;2023-06-22T07:06:45;21.60;1.00
13610;DHT22;6876;50.788;4.940;2023-06-22T07:09:32;21.50;1.00
13610;DHT22;6876;50.788;4.940;2023-06-22T07:12:19;21.60;1.00
13610;DHT22;6876;50.788;4.940;2023-06-22T07:15:08;21.80;1.00
13610;DHT22;6876;50.788;4.940;2023-06-22T07:17:55;21.90;1.00
13610;DHT22;6876;50.788;4.940;2023-06-22T07:20:43;22.00;1.00
13610;DHT22;6876;50.788;4.940;2023-06-22T07:23:31;22.10;1.00
13610;DHT22;6876;50.788;4.940;2023-06-22T07:26:18;22.20;1.00
13610;DHT22;6876;50.788;4.940;2023-06-22T07:29:05;22.20;99.90
13610;DHT22;6876;50.788;4.940;2023-06-22T07:31:53;22.20;99.90
13610;DHT22;6876;50.788;4.940;2023-06-22T07:34:42;22.20;1.00
13610;DHT22;6876;50.788;4.940;2023-06-22T07:37:29;22.40;99.90
13610;DHT22;6876;50.788;4.940;2023-06-22T07:40:20;22.50;99.90
13610;DHT22;6876;50.788;4.940;2023-06-22T07:43:07;22.60;1.00
13610;DHT22;6876;50.788;4.940;2023-06-22T07:45:55;22.80;99.90
13610;DHT22;6876;50.788;4.940;2023-06-22T07:48:42;22.90;99.90
13610;DHT22;6876;50.788;4.940;2023-06-22T07:51:29;23.00;99.90
13610;DHT22;6876;50.788;4.940;2023-06-22T07:54:17;23.10;1.00
13610;DHT22;6876;50.788;4.940;2023-06-22T07:57:06;23.00;1.00
13610;DHT22;6876;50.788;4.940;2023-06-22T07:59:53;23.10;99.90
13610;DHT22;6876;50.788;4.940;2023-06-22T08:02:40;23.10;1.00
13610;DHT22;6876;50.788;4.940;2023-06-22T08:05:28;23.10;99.90
13610;DHT22;6876;50.788;4.940;2023-06-22T08:08:16;23.10;1.00
13610;DHT22;6876;50.788;4.940;2023-06-22T08:11:03;23.20;1.00
13610;DHT22;6876;50.788;4.940;2023-06-22T08:13:52;23.30;99.90
13610;DHT22;6876;50.788;4.940;2023-06-22T08:16:41;23.40;1.00
13610;DHT22;6876;50.788;4.940;2023-06-22T08:19:28;23.40;1.00
13610;DHT22;6876;50.788;4.940;2023-06-22T08:22:15;23.20;99.90
13610;DHT22;6876;50.788;4.940;2023-06-22T08:25:04;23.20;1.00
13610;DHT22;6876;50.788;4.940;2023-06-22T08:27:52;23.10;99.90
13610;DHT22;6876;50.788;4.940;2023-06-22T08:30:40;23.10;99.90
13610;DHT22;6876;50.788;4.940;2023-06-22T08:33:27;23.10;99.90
13610;DHT22;6876;50.788;4.940;2023-06-22T08:36:16;23.20;99.90
13610;DHT22;6876;50.788;4.940;2023-06-22T08:39:03;23.20;2.00
13610;DHT22;6876;50.788;4.940;2023-06-22T08:41:50;23.20;99.90
13610;DHT22;6876;50.788;4.940;2023-06-22T08:44:38;23.30;11.50
13610;DHT22;6876;50.788;4.940;2023-06-22T08:47:27;23.30;1.00
13610;DHT22;6876;50.788;4.940;2023-06-22T08:50:14;23.10;1.00
13610;DHT22;6876;50.788;4.940;2023-06-22T08:53:01;23.10;99.90
13610;DHT22;6876;50.788;4.940;2023-06-22T08:55:49;23.10;31.70
13610;DHT22;6876;50.788;4.940;2023-06-22T08:58:36;23.00;1.00
13610;DHT22;6876;50.788;4.940;2023-06-22T09:01:24;22.90;99.90
13610;DHT22;6876;50.788;4.940;2023-06-22T09:04:12;22.90;99.90
13610;DHT22;6876;50.788;4.940;2023-06-22T09:07:00;22.80;1.00
13610;DHT22;6876;50.788;4.940;2023-06-22T09:09:47;22.80;1.00
13610;DHT22;6876;50.788;4.940;2023-06-22T09:12:34;22.80;1.00
13610;DHT22;6876;50.788;4.940;2023-06-22T09:15:23;22.90;99.90
13610;DHT22;6876;50.788;4.940;2023-06-22T09:18:11;22.80;1.00
13610;DHT22;6876;50.788;4.940;2023-06-22T09:21:00;22.80;1.00
13610;DHT22;6876;50.788;4.940;2023-06-22T09:23:48;22.70;1.00
13610;DHT22;6876;50.788;4.940;2023-06-22T09:26:37;22.70;99.90
13610;DHT22;6876;50.788;4.940;2023-06-22T09:29:24;22.60;99.90
13610;DHT22;6876;50.788;4.940;2023-06-22T09:32:11;22.50;99.90
13610;DHT22;6876;50.788;4.940;2023-06-22T09:35:02;22.40;99.90
13610;DHT22;6876;50.788;4.940;2023-06-22T09:37:50;22.50;99.90
13610;DHT22;6876;50.788;4.940;2023-06-22T09:40:38;22.50;1.00
13610;DHT22;6876;50.788;4.940;2023-06-22T09:43:26;22.50;9.70
13610;DHT22;6876;50.788;4.940;2023-06-22T09:46:15;22.50;99.90
13610;DHT22;6876;50.788;4.940;2023-06-22T09:49:02;22.50;1.00
13610;DHT22;6876;50.788;4.940;2023-06-22T09:51:49;22.30;1.00
13610;DHT22;6876;50.788;4.940;2023-06-22T09:54:38;22.10;1.00
13610;DHT22;6876;50.788;4.940;2023-06-22T09:57:25;22.00;1.00
13610;DHT22;6876;50.788;4.940;2023-06-22T10:00:13;22.00;1.00
13610;DHT22;6876;50.788;4.940;2023-06-22T10:03:01;21.90;1.00
13610;DHT22;6876;50.788;4.940;2023-06-22T10:05:49;21.90;1.00
13610;DHT22;6876;50.788;4.940;2023-06-22T10:08:37;21.90;1.00
13610;DHT22;6876;50.788;4.940;2023-06-22T10:11:26;21.80;1.00
13610;DHT22;6876;50.788;4.940;2023-06-22T10:14:16;21.80;1.00
13610;DHT22;6876;50.788;4.940;2023-06-22T10:17:03;21.70;1.00
13610;DHT22;6876;50.788;4.940;2023-06-22T10:19:53;21.60;17.10
13610;DHT22;6876;50.788;4.940;2023-06-22T10:22:41;21.50;1.00
13610;DHT22;6876;50.788;4.940;2023-06-22T10:25:28;21.40;24.90
13610;DHT22;6876;50.788;4.940;2023-06-22T10:28:17;21.40;42.60
13610;DHT22;6876;50.788;4.940;2023-06-22T10:31:04;21.20;99.90
13610;DHT22;6876;50.788;4.940;2023-06-22T10:33:51;21.00;99.90
13610;DHT22;6876;50.788;4.940;2023-06-22T10:36:39;20.80;99.90
13610;DHT22;6876;50.788;4.940;2023-06-22T10:39:26;20.80;99.90
13610;DHT22;6876;50.788;4.940;2023-06-22T10:42:14;20.60;99.90
13610;DHT22;6876;50.788;4.940;2023-06-22T10:45:03;20.60;99.90
13610;DHT22;6876;50.788;4.940;2023-06-22T10:47:50;20.40;99.90
13610;DHT22;6876;50.788;4.940;2023-06-22T10:50:38;20.30;99.90
13610;DHT22;6876;50.788;4.940;2023-06-22T10:53:25;20.00;99.90
13610;DHT22;6876;50.788;4.940;2023-06-22T10:56:12;19.90;99.90
13610;DHT22;6876;50.788;4.940;2023-06-22T10:58:59;19.80;99.90
13610;DHT22;6876;50.788;4.940;2023-06-22T11:01:49;19.90;99.90
13610;DHT22;6876;50.788;4.940;2023-06-22T11:04:36;20.20;99.90
13610;DHT22;6876;50.788;4.940;2023-06-22T11:07:23;20.40;99.90
13610;DHT22;6876;50.788;4.940;2023-06-22T11:10:13;20.50;99.90
13610;DHT22;6876;50.788;4.940;2023-06-22T11:13:00;20.90;99.90
13610;DHT22;6876;50.788;4.940;2023-06-22T11:15:50;20.90;99.90
13610;DHT22;6876;50.788;4.940;2023-06-22T11:18:38;21.00;99.90
13610;DHT22;6876;50.788;4.940;2023-06-22T11:21:26;20.90;99.90
13610;DHT22;6876;50.788;4.940;2023-06-22T11:24:13;20.80;99.90
13610;DHT22;6876;50.788;4.940;2023-06-22T11:27:00;20.80;99.90
13610;DHT22;6876;50.788;4.940;2023-06-22T11:29:47;20.60;99.90
13610;DHT22;6876;50.788;4.940;2023-06-22T11:32:35;20.60;99.90
13610;DHT22;6876;50.788;4.940;2023-06-22T11:35:24;20.60;99.90
13610;DHT22;6876;50.788;4.940;2023-06-22T11:38:11;20.40;99.90
13610;DHT22;6876;50.788;4.940;2023-06-22T11:41:00;20.30;99.90
13610;DHT22;6876;50.788;4.940;2023-06-22T11:43:47;20.10;99.90
13610;DHT22;6876;50.788;4.940;2023-06-22T11:46:34;20.10;99.90
13610;DHT22;6876;50.788;4.940;2023-06-22T11:49:22;20.00;99.90
13610;DHT22;6876;50.788;4.940;2023-06-22T11:52:10;19.90;99.90
13610;DHT22;6876;50.788;4.940;2023-06-22T11:54:58;19.90;99.90
13610;DHT22;6876;50.788;4.940;2023-06-22T11:57:54;19.90;99.90
13610;DHT22;6876;50.788;4.940;2023-06-22T12:00:44;19.90;99.90
13610;DHT22;6876;50.788;4.940;2023-06-22T12:03:31;19.90;99.90
13610;DHT22;6876;50.788;4.940;2023-06-22T12:06:19;19.90;99.90
13610;DHT22;6876;50.788;4.940;2023-06-22T12:09:08;19.90;99.90
13610;DHT22;6876;50.788;4.940;2023-06-22T12:11:55;19.80;99.90
13610;DHT22;6876;50.788;4.940;2023-06-22T12:14:43;19.80;99.90
13610;DHT22;6876;50.788;4.940;2023-06-22T12:17:34;19.70;99.90
13610;DHT22;6876;50.788;4.940;2023-06-22T12:20:22;19.70;99.90
13610;DHT22;6876;50.788;4.940;2023-06-22T12:23:10;19.60;99.90
13610;DHT22;6876;50.788;4.940;2023-06-22T12:25:58;19.50;99.90
13610;DHT22;6876;50.788;4.940;2023-06-22T12:28:47;19.50;99.90
13610;DHT22;6876;50.788;4.940;2023-06-22T12:31:35;19.50;99.90
13610;DHT22;6876;50.788;4.940;2023-06-22T12:34:24;19.40;99.90
13610;DHT22;6876;50.788;4.940;2023-06-22T12:37:12;19.40;99.90
13610;DHT22;6876;50.788;4.940;2023-06-22T12:40:00;19.40;99.90
13610;DHT22;6876;50.788;4.940;2023-06-22T12:42:51;19.40;99.90
13610;DHT22;6876;50.788;4.940;2023-06-22T12:45:38;19.40;99.90
13610;DHT22;6876;50.788;4.940;2023-06-22T12:48:27;19.40;99.90
13610;DHT22;6876;50.788;4.940;2023-06-22T12:51:20;19.40;99.90
13610;DHT22;6876;50.788;4.940;2023-06-22T12:54:08;19.30;99.90
13610;DHT22;6876;50.788;4.940;2023-06-22T12:56:55;19.30;99.90
13610;DHT22;6876;50.788;4.940;2023-06-22T12:59:48;19.30;99.90
13610;DHT22;6876;50.788;4.940;2023-06-22T13:02:35;19.20;99.90
13610;DHT22;6876;50.788;4.940;2023-06-22T13:05:23;19.20;99.90
13610;DHT22;6876;50.788;4.940;2023-06-22T13:08:13;19.10;99.90
13610;DHT22;6876;50.788;4.940;2023-06-22T13:11:01;19.00;99.90
13610;DHT22;6876;50.788;4.940;2023-06-22T13:13:48;19.00;99.90
13610;DHT22;6876;50.788;4.940;2023-06-22T13:16:37;19.00;99.90
13610;DHT22;6876;50.788;4.940;2023-06-22T13:19:24;18.90;99.90
13610;DHT22;6876;50.788;4.940;2023-06-22T13:22:29;18.90;99.90
13610;DHT22;6876;50.788;4.940;2023-06-22T13:25:17;18.90;99.90
13610;DHT22;6876;50.788;4.940;2023-06-22T13:28:06;18.90;99.90
13610;DHT22;6876;50.788;4.940;2023-06-22T13:31:06;18.90;99.90
13610;DHT22;6876;50.788;4.940;2023-06-22T13:34:04;18.90;99.90
13610;DHT22;6876;50.788;4.940;2023-06-22T13:36:57;18.90;99.90
13610;DHT22;6876;50.788;4.940;2023-06-22T13:39:45;19.00;99.90
13610;DHT22;6876;50.788;4.940;2023-06-22T13:42:32;18.90;99.90
13610;DHT22;6876;50.788;4.940;2023-06-22T13:45:19;18.80;99.90
13610;DHT22;6876;50.788;4.940;2023-06-22T13:48:06;18.80;99.90
13610;DHT22;6876;50.788;4.940;2023-06-22T13:50:55;18.80;99.90
13610;DHT22;6876;50.788;4.940;2023-06-22T13:53:42;18.80;99.90
13610;DHT22;6876;50.788;4.940;2023-06-22T13:56:30;18.70;99.90
13610;DHT22;6876;50.788;4.940;2023-06-22T13:59:17;18.80;99.90
13610;DHT22;6876;50.788;4.940;2023-06-22T14:02:05;18.80;99.90
13610;DHT22;6876;50.788;4.940;2023-06-22T14:04:52;18.90;99.90
13610;DHT22;6876;50.788;4.940;2023-06-22T14:07:41;18.80;99.90
13610;DHT22;6876;50.788;4.940;2023-06-22T14:10:28;18.90;99.90
13610;DHT22;6876;50.788;4.940;2023-06-22T14:13:17;18.90;99.90
13610;DHT22;6876;50.788;4.940;2023-06-22T14:16:05;18.90;99.90
13610;DHT22;6876;50.788;4.940;2023-06-22T14:18:52;18.90;99.90
13610;DHT22;6876;50.788;4.940;2023-06-22T14:21:40;18.90;99.90
13610;DHT22;6876;50.788;4.940;2023-06-22T14:24:29;19.00;99.90
13610;DHT22;6876;50.788;4.940;2023-06-22T14:27:16;19.00;99.90
13610;DHT22;6876;50.788;4.940;2023-06-22T14:30:05;18.90;99.90
13610;DHT22;6876;50.788;4.940;2023-06-22T14:32:52;18.90;99.90
13610;DHT22;6876;50.788;4.940;2023-06-22T14:35:39;18.90;99.90
13610;DHT22;6876;50.788;4.940;2023-06-22T14:38:26;18.90;99.90
13610;DHT22;6876;50.788;4.940;2023-06-22T14:41:15;18.90;99.90
13610;DHT22;6876;50.788;4.940;2023-06-22T14:44:03;18.90;99.90
13610;DHT22;6876;50.788;4.940;2023-06-22T14:46:51;18.90;99.90
13610;DHT22;6876;50.788;4.940;2023-06-22T14:49:38;18.90;99.90
13610;DHT22;6876;50.788;4.940;2023-06-22T14:52:27;18.90;99.90
13610;DHT22;6876;50.788;4.940;2023-06-22T14:55:14;19.00;99.90
13610;DHT22;6876;50.788;4.940;2023-06-22T14:58:03;19.00;99.90
13610;DHT22;6876;50.788;4.940;2023-06-22T15:00:50;18.90;99.90
13610;DHT22;6876;50.788;4.940;2023-06-22T15:03:37;19.00;99.90
13610;DHT22;6876;50.788;4.940;2023-06-22T15:06:24;18.90;99.90
13610;DHT22;6876;50.788;4.940;2023-06-22T15:09:13;18.90;99.90
13610;DHT22;6876;50.788;4.940;2023-06-22T15:12:00;18.90;99.90
13610;DHT22;6876;50.788;4.940;2023-06-22T15:14:53;18.80;99.90
13610;DHT22;6876;50.788;4.940;2023-06-22T15:17:40;18.90;99.90
13610;DHT22;6876;50.788;4.940;2023-06-22T15:20:27;18.80;99.90
13610;DHT22;6876;50.788;4.940;2023-06-22T15:23:14;18.90;99.90
13610;DHT22;6876;50.788;4.940;2023-06-22T15:26:03;18.90;99.90
13610;DHT22;6876;50.788;4.940;2023-06-22T15:28:51;19.00;99.90
13610;DHT22;6876;50.788;4.940;2023-06-22T15:31:39;19.00;99.90
13610;DHT22;6876;50.788;4.940;2023-06-22T15:34:27;19.00;99.90
13610;DHT22;6876;50.788;4.940;2023-06-22T15:37:14;19.00;99.90
13610;DHT22;6876;50.788;4.940;2023-06-22T15:40:03;19.00;99.90
13610;DHT22;6876;50.788;4.940;2023-06-22T15:42:51;19.00;99.90
13610;DHT22;6876;50.788;4.940;2023-06-22T15:45:38;19.00;99.90
13610;DHT22;6876;50.788;4.940;2023-06-22T15:48:27;19.10;99.90
13610;DHT22;6876;50.788;4.940;2023-06-22T15:51:14;19.10;99.90
13610;DHT22;6876;50.788;4.940;2023-06-22T15:54:01;19.10;99.90
13610;DHT22;6876;50.788;4.940;2023-06-22T15:56:49;19.10;99.90
13610;DHT22;6876;50.788;4.940;2023-06-22T15:59:36;19.00;99.90
13610;DHT22;6876;50.788;4.940;2023-06-22T16:02:24;19.10;99.90
13610;DHT22;6876;50.788;4.940;2023-06-22T16:05:14;19.10;99.90
13610;DHT22;6876;50.788;4.940;2023-06-22T16:08:01;19.20;99.90
13610;DHT22;6876;50.788;4.940;2023-06-22T16:10:48;19.20;99.90
13610;DHT22;6876;50.788;4.940;2023-06-22T16:13:36;19.20;99.90
13610;DHT22;6876;50.788;4.940;2023-06-22T16:16:24;19.10;99.90
13610;DHT22;6876;50.788;4.940;2023-06-22T16:19:12;19.10;99.90
13610;DHT22;6876;50.788;4.940;2023-06-22T16:22:00;19.00;99.90
13610;DHT22;6876;50.788;4.940;2023-06-22T16:24:48;19.00;99.90
13610;DHT22;6876;50.788;4.940;2023-06-22T16:27:35;19.00;99.90
13610;DHT22;6876;50.788;4.940;2023-06-22T16:30:22;19.00;99.90
13610;DHT22;6876;50.788;4.940;2023-06-22T16:33:09;19.00;99.90
13610;DHT22;6876;50.788;4.940;2023-06-22T16:35:57;19.00;99.90
13610;DHT22;6876;50.788;4.940;2023-06-22T16:38:45;19.00;99.90
13610;DHT22;6876;50.788;4.940;2023-06-22T16:41:32;19.00;99.90
13610;DHT22;6876;50.788;4.940;2023-06-22T16:44:20;19.00;99.90
13610;DHT22;6876;50.788;4.940;2023-06-22T16:47:07;19.00;99.90
13610;DHT22;6876;50.788;4.940;2023-06-22T16:49:54;19.00;99.90
13610;DHT22;6876;50.788;4.940;2023-06-22T16:52:42;19.00;99.90
13610;DHT22;6876;50.788;4.940;2023-06-22T16:55:31;19.20;99.90
13610;DHT22;6876;50.788;4.940;2023-06-22T16:58:20;19.20;99.90
13610;DHT22;6876;50.788;4.940;2023-06-22T17:01:11;19.30;99.90
13610;DHT22;6876;50.788;4.940;2023-06-22T17:04:03;19.30;99.90
13610;DHT22;6876;50.788;4.940;2023-06-22T17:06:54;19.30;99.90
13610;DHT22;6876;50.788;4.940;2023-06-22T17:09:46;19.30;99.90
13610;DHT22;6876;50.788;4.940;2023-06-22T17:12:35;19.30;99.90
13610;DHT22;6876;50.788;4.940;2023-06-22T17:15:24;19.30;99.90
13610;DHT22;6876;50.788;4.940;2023-06-22T17:18:12;19.40;99.90
13610;DHT22;6876;50.788;4.940;2023-06-22T17:20:59;19.30;99.90
13610;DHT22;6876;50.788;4.940;2023-06-22T17:23:47;19.40;99.90
13610;DHT22;6876;50.788;4.940;2023-06-22T17:26:35;19.50;99.90
13610;DHT22;6876;50.788;4.940;2023-06-22T17:29:28;19.60;99.90
13610;DHT22;6876;50.788;4.940;2023-06-22T17:32:20;19.60;99.90
13610;DHT22;6876;50.788;4.940;2023-06-22T17:35:10;19.50;99.90
13610;DHT22;6876;50.788;4.940;2023-06-22T17:37:58;19.60;99.90
13610;DHT22;6876;50.788;4.940;2023-06-22T17:40:47;19.60;99.90
13610;DHT22;6876;50.788;4.940;2023-06-22T17:43:45;19.50;99.90
13610;DHT22;6876;50.788;4.940;2023-06-22T17:46:37;19.50;99.90
13610;DHT22;6876;50.788;4.940;2023-06-22T17:49:28;19.50;99.90
13610;DHT22;6876;50.788;4.940;2023-06-22T17:52:16;19.50;99.90
13610;DHT22;6876;50.788;4.940;2023-06-22T17:55:05;19.50;99.90
13610;DHT22;6876;50.788;4.940;2023-06-22T17:57:55;19.50;99.90
13610;DHT22;6876;50.788;4.940;2023-06-22T18:00:43;19.60;99.90
13610;DHT22;6876;50.788;4.940;2023-06-22T18:03:34;19.60;99.90
13610;DHT22;6876;50.788;4.940;2023-06-22T18:06:26;19.50;99.90
13610;DHT22;6876;50.788;4.940;2023-06-22T18:09:15;19.50;99.90